createdAt,value
2023-05-11T00:00:24.304Z,12.20
2023-05-11T00:02:51.053Z,12.20
2023-05-11T00:05:17.698Z,12.20
2023-05-11T00:07:44.425Z,12.20
2023-05-11T00:10:11.102Z,12.20
2023-05-11T00:12:37.723Z,12.10
2023-05-11T00:15:04.587Z,12.20
2023-05-11T00:17:31.237Z,12.20
2023-05-11T00:19:57.780Z,12.20
2023-05-11T00:22:24.419Z,12.10
2023-05-11T00:24:50.989Z,12.20
2023-05-11T00:27:17.637Z,12.20
2023-05-11T00:29:44.290Z,12.20
2023-05-11T00:32:10.948Z,12.20
2023-05-11T00:34:37.603Z,12.20
2023-05-11T00:37:04.372Z,12.20
2023-05-11T00:39:31.092Z,12.10
2023-05-11T00:41:57.769Z,12.10
2023-05-11T00:44:24.395Z,12.10
2023-05-11T00:46:51.282Z,12.10
2023-05-11T00:49:21.365Z,12.20
2023-05-11T00:51:47.928Z,12.10
2023-05-11T00:54:15.723Z,12.10
2023-05-11T00:56:42.403Z,12.10
2023-05-11T00:59:09.123Z,12.10
2023-05-11T01:01:38.463Z,12.10
2023-05-11T01:04:05.413Z,12.00
2023-05-11T01:06:36.297Z,12.00
2023-05-11T01:09:06.467Z,12.00
2023-05-11T01:11:46.008Z,12.00
2023-05-11T01:14:14.861Z,12.10
2023-05-11T01:16:43.059Z,12.00
2023-05-11T01:19:28.021Z,12.00
2023-05-11T01:21:54.623Z,12.00
2023-05-11T01:24:37.639Z,12.00
2023-05-11T01:27:14.906Z,12.00
2023-05-11T01:29:50.749Z,12.00
2023-05-11T01:32:22.326Z,12.10
2023-05-11T01:34:51.602Z,12.00
2023-05-11T01:37:26.651Z,12.00
2023-05-11T01:39:57.907Z,12.00
2023-05-11T01:42:26.169Z,12.00
2023-05-11T01:44:54.152Z,12.00
2023-05-11T01:47:22.861Z,12.00
2023-05-11T01:49:50.853Z,12.00
2023-05-11T01:52:18.141Z,12.00
2023-05-11T01:54:45.984Z,12.00
2023-05-11T01:57:12.814Z,12.00
2023-05-11T01:59:39.776Z,12.00
2023-05-11T02:02:07.024Z,11.90
2023-05-11T02:04:34.687Z,12.00
2023-05-11T02:07:01.953Z,11.90
2023-05-11T02:09:29.786Z,12.00
2023-05-11T02:11:57.459Z,12.00
2023-05-11T02:14:24.560Z,12.00
2023-05-11T02:16:51.852Z,11.90
2023-05-11T02:19:18.958Z,12.00
2023-05-11T02:21:46.256Z,12.00
2023-05-11T02:24:13.031Z,12.00
2023-05-11T02:26:39.566Z,12.00
2023-05-11T02:29:06.118Z,12.00
2023-05-11T02:31:36.518Z,12.00
2023-05-11T02:34:06.099Z,12.00
2023-05-11T02:36:33.556Z,12.00
2023-05-11T02:39:05.798Z,11.90
2023-05-11T02:41:33.154Z,11.90
2023-05-11T02:44:02.730Z,11.90
2023-05-11T02:46:32.146Z,11.90
2023-05-11T02:49:01.040Z,11.90
2023-05-11T02:51:32.820Z,11.90
2023-05-11T02:53:59.558Z,11.90
2023-05-11T02:56:26.466Z,11.90
2023-05-11T02:58:52.998Z,12.00
2023-05-11T03:01:20.029Z,12.00
2023-05-11T03:03:46.760Z,11.90
2023-05-11T03:06:13.701Z,11.90
2023-05-11T03:08:40.971Z,12.00
2023-05-11T03:11:08.771Z,12.00
2023-05-11T03:13:35.484Z,12.00
2023-05-11T03:16:02.481Z,11.90
2023-05-11T03:18:29.761Z,11.90
2023-05-11T03:20:57.478Z,11.90
2023-05-11T03:23:24.065Z,11.90
2023-05-11T03:25:50.695Z,11.90
2023-05-11T03:28:17.508Z,11.90
2023-05-11T03:30:45.587Z,11.90
2023-05-11T03:33:12.164Z,11.90
2023-05-11T03:35:41.224Z,11.90
2023-05-11T03:38:08.115Z,11.90
2023-05-11T03:40:36.638Z,11.90
2023-05-11T03:43:03.987Z,11.90
2023-05-11T03:45:31.459Z,11.90
2023-05-11T03:47:59.846Z,11.90
2023-05-11T03:50:28.030Z,11.90
2023-05-11T03:52:55.171Z,11.90
2023-05-11T03:55:21.806Z,11.90
2023-05-11T03:57:48.460Z,11.90
2023-05-11T04:00:15.273Z,11.90
2023-05-11T04:02:42.421Z,11.90
2023-05-11T04:05:09.851Z,12.00
2023-05-11T04:07:37.268Z,12.00
2023-05-11T04:10:04.779Z,12.00
2023-05-11T04:12:31.623Z,12.00
2023-05-11T04:14:58.123Z,12.00
2023-05-11T04:17:24.674Z,12.00
2023-05-11T04:19:51.248Z,12.00
2023-05-11T04:22:17.803Z,12.00
2023-05-11T04:24:44.329Z,12.00
2023-05-11T04:27:10.817Z,12.00
2023-05-11T04:29:37.401Z,12.10
2023-05-11T04:32:04.034Z,12.00
2023-05-11T04:34:30.549Z,12.10
2023-05-11T04:36:57.113Z,12.10
2023-05-11T04:39:23.607Z,12.20
2023-05-11T04:41:50.179Z,12.20
2023-05-11T04:44:16.699Z,12.20
2023-05-11T04:46:43.318Z,12.30
2023-05-11T04:49:09.852Z,12.30
2023-05-11T04:51:36.408Z,12.30
2023-05-11T04:54:02.966Z,12.40
2023-05-11T04:56:29.475Z,12.40
2023-05-11T04:58:56.104Z,12.40
2023-05-11T05:01:22.785Z,12.40
2023-05-11T05:03:49.892Z,12.40
2023-05-11T05:06:16.451Z,12.50
2023-05-11T05:08:43.019Z,12.50
2023-05-11T05:11:11.534Z,12.50
2023-05-11T05:13:38.101Z,12.50
2023-05-11T05:16:04.760Z,12.50
2023-05-11T05:18:31.329Z,12.60
2023-05-11T05:20:57.876Z,12.60
2023-05-11T05:23:24.435Z,12.60
2023-05-11T05:25:50.946Z,12.70
2023-05-11T05:28:17.473Z,12.70
2023-05-11T05:30:44.083Z,12.70
2023-05-11T05:33:10.823Z,12.80
2023-05-11T05:35:37.396Z,12.80
2023-05-11T05:38:04.046Z,12.80
2023-05-11T05:40:30.711Z,12.90
2023-05-11T05:42:57.221Z,12.90
2023-05-11T05:45:23.782Z,13.00
2023-05-11T05:47:51.758Z,13.00
2023-05-11T05:50:18.644Z,13.00
2023-05-11T05:52:45.341Z,13.10
2023-05-11T05:55:12.191Z,13.10
2023-05-11T05:57:38.724Z,13.10
2023-05-11T06:00:05.560Z,13.10
2023-05-11T06:02:32.121Z,13.20
2023-05-11T06:04:58.965Z,13.20
2023-05-11T06:07:25.660Z,13.30
2023-05-11T06:09:52.220Z,13.30
2023-05-11T06:12:18.721Z,13.40
2023-05-11T06:14:45.270Z,13.40
2023-05-11T06:17:11.815Z,13.50
2023-05-11T06:19:38.740Z,13.60
2023-05-11T06:22:06.636Z,13.70
2023-05-11T06:24:33.513Z,13.80
2023-05-11T06:27:00.533Z,13.90
2023-05-11T06:29:27.098Z,13.90
2023-05-11T06:31:54.432Z,14.00
2023-05-11T06:34:21.103Z,14.10
2023-05-11T06:36:48.114Z,14.20
2023-05-11T06:39:14.710Z,14.20
2023-05-11T06:41:41.229Z,14.20
2023-05-11T06:44:08.407Z,14.20
2023-05-11T06:46:35.006Z,14.20
2023-05-11T06:49:01.847Z,14.20
2023-05-11T06:51:28.356Z,14.20
2023-05-11T06:53:54.875Z,14.30
2023-05-11T06:56:21.825Z,14.30
2023-05-11T06:58:48.376Z,14.30
2023-05-11T07:01:15.081Z,14.20
2023-05-11T07:03:41.658Z,14.20
2023-05-11T07:06:08.361Z,14.30
2023-05-11T07:08:34.893Z,14.30
2023-05-11T07:11:01.507Z,14.50
2023-05-11T07:13:28.054Z,14.60
2023-05-11T07:15:57.235Z,14.70
2023-05-11T07:18:24.243Z,14.90
2023-05-11T07:20:50.812Z,15.00
2023-05-11T07:23:17.362Z,15.00
2023-05-11T07:25:43.999Z,15.00
2023-05-11T07:28:10.538Z,14.90
2023-05-11T07:30:37.111Z,14.90
2023-05-11T07:33:03.995Z,15.00
2023-05-11T07:35:30.816Z,15.00
2023-05-11T07:37:57.358Z,14.90
2023-05-11T07:40:23.899Z,15.00
2023-05-11T07:42:50.406Z,15.10
2023-05-11T07:45:16.961Z,15.30
2023-05-11T07:47:44.892Z,15.50
2023-05-11T07:50:11.439Z,15.60
2023-05-11T07:52:38.233Z,15.70
2023-05-11T07:55:04.970Z,15.70
2023-05-11T07:57:31.520Z,15.80
2023-05-11T07:59:58.072Z,15.80
2023-05-11T08:02:24.701Z,15.90
2023-05-11T08:04:51.360Z,15.90
2023-05-11T08:07:17.953Z,16.00
2023-05-11T08:09:44.448Z,16.10
2023-05-11T08:12:11.100Z,16.20
2023-05-11T08:14:37.879Z,16.20
2023-05-11T08:17:04.431Z,16.30
2023-05-11T08:19:30.964Z,16.30
2023-05-11T08:21:57.493Z,16.40
2023-05-11T08:24:24.164Z,16.50
2023-05-11T08:26:50.736Z,16.50
2023-05-11T08:29:17.259Z,16.70
2023-05-11T08:31:43.896Z,16.80
2023-05-11T08:34:18.641Z,16.90
2023-05-11T08:36:46.734Z,17.10
2023-05-11T08:39:13.453Z,17.10
2023-05-11T08:41:39.980Z,17.10
2023-05-11T08:44:07.250Z,16.90
2023-05-11T08:46:35.562Z,16.90
2023-05-11T08:49:02.370Z,16.90
2023-05-11T08:51:28.915Z,17.00
2023-05-11T08:53:57.639Z,17.10
2023-05-11T08:56:25.634Z,17.10
2023-05-11T08:58:55.865Z,17.10
2023-05-11T09:01:23.411Z,17.10
2023-05-11T09:03:50.214Z,17.20
2023-05-11T09:06:16.979Z,17.10
2023-05-11T09:08:44.038Z,17.10
2023-05-11T09:11:10.711Z,17.10
2023-05-11T09:13:37.437Z,17.10
2023-05-11T09:16:04.131Z,17.10
2023-05-11T09:18:30.770Z,17.20
2023-05-11T09:20:57.379Z,17.30
2023-05-11T09:23:27.328Z,17.30
2023-05-11T09:25:53.933Z,17.30
2023-05-11T09:28:25.434Z,17.30
2023-05-11T09:30:53.056Z,17.20
2023-05-11T09:33:24.157Z,17.30
2023-05-11T09:35:50.885Z,17.30
2023-05-11T09:38:19.824Z,17.40
2023-05-11T09:40:56.182Z,17.50
2023-05-11T09:43:27.064Z,17.70
2023-05-11T09:45:55.406Z,17.80
2023-05-11T09:48:32.835Z,17.90
2023-05-11T09:51:01.562Z,17.90
2023-05-11T09:53:43.001Z,17.90
2023-05-11T09:56:10.107Z,18.00
2023-05-11T09:58:49.956Z,18.20
2023-05-11T10:01:17.157Z,18.20
2023-05-11T10:03:47.711Z,18.20
2023-05-11T10:06:14.592Z,18.10
2023-05-11T10:08:42.082Z,18.00
2023-05-11T10:11:08.808Z,18.10
2023-05-11T10:13:36.980Z,18.10
2023-05-11T10:16:04.632Z,18.10
2023-05-11T10:18:32.265Z,18.10
2023-05-11T10:20:59.188Z,18.00
2023-05-11T10:23:26.943Z,18.10
2023-05-11T10:25:53.970Z,18.00
2023-05-11T10:28:23.580Z,17.90
2023-05-11T10:30:51.032Z,17.80
2023-05-11T10:33:17.821Z,17.80
2023-05-11T10:35:45.383Z,17.90
2023-05-11T10:38:15.978Z,18.10
2023-05-11T10:40:43.742Z,18.30
2023-05-11T10:43:19.622Z,18.40
2023-05-11T10:46:02.166Z,18.30
2023-05-11T10:48:28.697Z,18.20
2023-05-11T10:51:07.646Z,18.10
2023-05-11T10:53:47.062Z,18.00
2023-05-11T10:56:19.848Z,18.00
2023-05-11T10:58:59.608Z,18.10
2023-05-11T11:01:35.157Z,18.10
2023-05-11T11:04:20.761Z,18.10
2023-05-11T11:06:47.356Z,18.10
2023-05-11T11:09:15.660Z,18.10
2023-05-11T11:11:46.378Z,18.10
2023-05-11T11:14:16.666Z,18.00
2023-05-11T11:17:12.634Z,18.00
2023-05-11T11:19:39.275Z,17.80
2023-05-11T11:22:06.197Z,17.70
2023-05-11T11:24:38.740Z,17.50
2023-05-11T11:27:05.602Z,17.40
2023-05-11T11:29:32.115Z,17.30
2023-05-11T11:32:17.387Z,17.10
2023-05-11T11:34:44.023Z,17.00
2023-05-11T11:37:10.882Z,16.90
2023-05-11T11:39:43.744Z,16.80
2023-05-11T11:42:17.548Z,16.70
2023-05-11T11:44:44.800Z,16.70
2023-05-11T11:47:12.555Z,16.80
2023-05-11T11:49:39.777Z,16.90
2023-05-11T11:52:10.847Z,17.00
2023-05-11T11:54:38.731Z,17.20
2023-05-11T11:57:05.220Z,17.30
2023-05-11T11:59:45.491Z,17.40
2023-05-11T12:02:15.421Z,17.50
2023-05-11T12:04:53.048Z,17.30
2023-05-11T12:07:20.323Z,17.30
2023-05-11T12:09:47.478Z,17.30
2023-05-11T12:12:16.670Z,17.60
2023-05-11T12:14:48.798Z,17.80
2023-05-11T12:17:16.570Z,18.10
2023-05-11T12:19:43.591Z,18.20
2023-05-11T12:22:10.871Z,18.40
2023-05-11T12:24:41.208Z,18.30
2023-05-11T12:27:07.875Z,18.30
2023-05-11T12:29:34.451Z,18.20
2023-05-11T12:32:01.073Z,18.00
2023-05-11T12:34:27.641Z,17.80
2023-05-11T12:36:54.627Z,17.60
2023-05-11T12:39:27.834Z,17.50
2023-05-11T12:41:55.502Z,17.30
2023-05-11T12:44:22.809Z,17.20
2023-05-11T12:46:50.522Z,17.10
2023-05-11T12:52:02.143Z,16.90
2023-05-11T12:54:37.599Z,16.90
2023-05-11T12:57:04.901Z,16.90
2023-05-11T12:59:40.798Z,17.00
2023-05-11T13:02:16.378Z,17.10
2023-05-11T13:04:43.543Z,17.20
2023-05-11T13:07:10.290Z,17.40
2023-05-11T13:09:37.208Z,17.50
2023-05-11T13:12:22.309Z,17.80
2023-05-11T13:14:49.542Z,17.90
2023-05-11T13:17:30.086Z,18.00
2023-05-11T13:19:56.835Z,18.00
2023-05-11T13:22:23.369Z,18.10
2023-05-11T13:25:04.682Z,18.20
2023-05-11T13:27:31.243Z,18.40
2023-05-11T13:29:57.769Z,18.40
2023-05-11T13:32:24.365Z,18.30
2023-05-11T13:34:51.897Z,18.10
2023-05-11T13:37:18.431Z,18.10
2023-05-11T13:39:44.979Z,18.10
2023-05-11T13:42:11.466Z,18.20
2023-05-11T13:44:38.083Z,18.20
2023-05-11T13:47:04.860Z,18.20
2023-05-11T13:49:31.577Z,18.20
2023-05-11T13:51:58.125Z,18.30
2023-05-11T13:54:24.868Z,18.30
2023-05-11T13:56:51.564Z,18.30
2023-05-11T13:59:18.083Z,18.30
2023-05-11T14:01:44.709Z,18.30
2023-05-11T14:04:11.552Z,18.30
2023-05-11T14:06:38.360Z,18.20
2023-05-11T14:09:04.908Z,18.10
2023-05-11T14:11:31.874Z,18.00
2023-05-11T14:13:58.460Z,17.90
2023-05-11T14:16:25.064Z,17.90
2023-05-11T14:18:51.791Z,17.90
2023-05-11T14:21:18.373Z,17.80
2023-05-11T14:23:57.650Z,17.70
2023-05-11T14:26:29.076Z,17.70
2023-05-11T14:28:55.582Z,17.70
2023-05-11T14:31:22.540Z,17.70
2023-05-11T14:33:49.124Z,17.60
2023-05-11T14:36:15.955Z,17.70
2023-05-11T14:38:42.469Z,17.70
2023-05-11T14:41:09.754Z,17.70
2023-05-11T14:43:36.497Z,17.80
2023-05-11T14:46:03.617Z,17.80
2023-05-11T14:48:30.161Z,17.80
2023-05-11T14:50:57.852Z,17.80
2023-05-11T14:53:24.363Z,17.80
2023-05-11T14:55:50.868Z,17.90
2023-05-11T14:58:17.383Z,17.80
2023-05-11T15:00:43.915Z,17.80
2023-05-11T15:03:10.834Z,17.80
2023-05-11T15:05:38.057Z,17.70
2023-05-11T15:10:31.658Z,17.70
2023-05-11T15:12:58.292Z,17.60
2023-05-11T15:15:25.135Z,17.50
2023-05-11T15:17:51.725Z,17.50
2023-05-11T15:20:18.461Z,17.40
2023-05-11T15:22:45.322Z,17.30
2023-05-11T15:25:11.945Z,17.30
2023-05-11T15:27:38.522Z,17.10
2023-05-11T15:30:05.460Z,17.10
2023-05-11T15:32:32.304Z,17.10
2023-05-11T15:35:00.096Z,17.00
2023-05-11T15:37:27.304Z,17.00
2023-05-11T15:39:53.844Z,17.00
2023-05-11T15:42:20.530Z,17.00
2023-05-11T15:44:47.322Z,17.00
2023-05-11T15:47:14.024Z,17.00
2023-05-11T15:49:40.877Z,17.00
2023-05-11T15:52:07.948Z,17.00
2023-05-11T15:54:36.040Z,17.00
2023-05-11T15:57:02.851Z,17.00
2023-05-11T15:59:29.625Z,17.00
2023-05-11T16:01:56.146Z,16.90
2023-05-11T16:04:22.737Z,16.90
2023-05-11T16:06:49.291Z,16.90
2023-05-11T16:09:16.626Z,17.00
2023-05-11T16:11:43.541Z,17.00
2023-05-11T16:14:10.136Z,17.00
2023-05-11T16:16:36.771Z,17.00
2023-05-11T16:19:03.623Z,16.90
2023-05-11T16:21:30.179Z,17.00
2023-05-11T16:23:56.751Z,17.00
2023-05-11T16:26:23.411Z,17.00
2023-05-11T16:28:49.949Z,17.00
2023-05-11T16:31:16.467Z,16.90
2023-05-11T16:33:43.088Z,16.90
2023-05-11T16:36:09.973Z,16.90
2023-05-11T16:38:37.240Z,16.90
2023-05-11T16:41:03.905Z,16.90
2023-05-11T16:43:30.415Z,16.90
2023-05-11T16:45:56.954Z,16.90
2023-05-11T16:48:23.546Z,16.80
2023-05-11T16:50:50.201Z,16.80
2023-05-11T16:53:17.527Z,16.80
2023-05-11T16:55:44.086Z,16.70
2023-05-11T16:58:10.797Z,16.70
2023-05-11T17:00:40.140Z,16.70
2023-05-11T17:03:06.716Z,16.70
2023-05-11T17:05:33.301Z,16.60
2023-05-11T17:07:59.870Z,16.50
2023-05-11T17:10:29.190Z,16.50
2023-05-11T17:12:56.809Z,16.50
2023-05-11T17:15:24.353Z,16.50
2023-05-11T17:17:53.123Z,16.40
2023-05-11T17:20:22.842Z,16.40
2023-05-11T17:22:52.946Z,16.40
2023-05-11T17:25:19.490Z,16.40
2023-05-11T17:27:46.056Z,16.40
2023-05-11T17:30:12.660Z,16.30
2023-05-11T17:32:39.580Z,16.20
2023-05-11T17:35:08.312Z,16.20
2023-05-11T17:37:35.295Z,16.20
2023-05-11T17:40:02.104Z,16.10
2023-05-11T17:42:28.613Z,16.10
2023-05-11T17:44:55.695Z,16.00
2023-05-11T17:47:22.431Z,15.90
2023-05-11T17:49:49.209Z,15.90
2023-05-11T17:52:16.012Z,15.90
2023-05-11T17:54:42.972Z,15.80
2023-05-11T17:57:09.471Z,15.80
2023-05-11T17:59:36.046Z,15.70
2023-05-11T18:02:03.377Z,15.70
2023-05-11T18:04:29.881Z,15.70
2023-05-11T18:06:56.521Z,15.70
2023-05-11T18:09:23.040Z,15.70
2023-05-11T18:11:49.624Z,15.60
2023-05-11T18:14:16.518Z,15.60
2023-05-11T18:16:43.397Z,15.50
2023-05-11T18:19:10.263Z,15.40
2023-05-11T18:21:37.614Z,15.40
2023-05-11T18:24:04.882Z,15.40
2023-05-11T18:26:31.453Z,15.30
2023-05-11T18:28:58.028Z,15.20
2023-05-11T18:31:24.671Z,15.20
2023-05-11T18:33:51.277Z,15.20
2023-05-11T18:36:17.786Z,15.20
2023-05-11T18:38:44.345Z,15.20
2023-05-11T18:41:10.960Z,15.10
2023-05-11T18:43:37.848Z,15.10
2023-05-11T18:46:08.257Z,15.00
2023-05-11T18:48:35.547Z,14.90
2023-05-11T18:51:02.320Z,14.90
2023-05-11T18:53:28.948Z,14.80
2023-05-11T18:55:56.024Z,14.70
2023-05-11T18:58:23.504Z,14.70
2023-05-11T19:00:51.083Z,14.70
2023-05-11T19:03:18.604Z,14.70
2023-05-11T19:05:45.366Z,14.60
2023-05-11T19:08:13.223Z,14.60
2023-05-11T19:10:40.481Z,14.50
2023-05-11T19:13:07.569Z,14.50
2023-05-11T19:15:34.138Z,14.40
2023-05-11T19:18:00.988Z,14.40
2023-05-11T19:20:27.551Z,14.40
2023-05-11T19:22:54.093Z,14.30
2023-05-11T19:25:20.605Z,14.30
2023-05-11T19:27:47.289Z,14.40
2023-05-11T19:30:13.966Z,14.40
2023-05-11T19:32:42.342Z,14.40
2023-05-11T19:35:11.651Z,14.40
2023-05-11T19:37:38.202Z,14.50
2023-05-11T19:40:26.649Z,14.40
2023-05-11T19:42:52.069Z,14.40
2023-05-11T19:45:18.813Z,14.30
2023-05-11T19:47:45.400Z,14.20
2023-05-11T19:50:13.461Z,14.20
2023-05-11T19:52:40.132Z,14.20
2023-05-11T19:55:07.029Z,14.10
2023-05-11T19:57:37.182Z,14.10
2023-05-11T20:00:05.236Z,14.00
2023-05-11T20:02:32.197Z,14.00
2023-05-11T20:04:59.549Z,14.00
2023-05-11T20:07:27.476Z,14.00
2023-05-11T20:09:54.672Z,14.00
2023-05-11T20:12:21.316Z,13.90
2023-05-11T20:14:47.843Z,13.90
2023-05-11T20:17:14.495Z,13.90
2023-05-11T20:19:41.045Z,13.80
2023-05-11T20:22:07.709Z,13.80
2023-05-11T20:24:34.208Z,13.80
2023-05-11T20:27:01.814Z,13.70
2023-05-11T20:29:28.324Z,13.70
2023-05-11T20:31:54.927Z,13.60
2023-05-11T20:34:21.666Z,13.60
2023-05-11T20:36:52.442Z,13.60
2023-05-11T20:39:19.386Z,13.60
2023-05-11T20:41:45.904Z,13.60
2023-05-11T20:44:13.847Z,13.50
2023-05-11T20:46:40.939Z,13.50
2023-05-11T20:49:07.445Z,13.50
2023-05-11T20:51:35.053Z,13.50
2023-05-11T20:54:01.611Z,13.50
2023-05-11T20:56:28.246Z,13.50
2023-05-11T20:58:55.299Z,13.40
2023-05-11T21:01:22.718Z,13.40
2023-05-11T21:03:49.462Z,13.40
2023-05-11T21:06:16.154Z,13.30
2023-05-11T21:08:42.864Z,13.30
2023-05-11T21:11:09.932Z,13.30
2023-05-11T21:13:36.616Z,13.20
2023-05-11T21:16:04.013Z,13.20
2023-05-11T21:18:34.777Z,13.10
2023-05-11T21:21:01.746Z,13.10
2023-05-11T21:23:28.521Z,13.10
2023-05-11T21:25:56.275Z,13.00
2023-05-11T21:28:25.381Z,13.00
2023-05-11T21:30:52.410Z,12.90
2023-05-11T21:33:19.075Z,13.00
2023-05-11T21:35:45.659Z,12.90
2023-05-11T21:38:15.009Z,12.90
2023-05-11T21:40:41.717Z,12.80
2023-05-11T21:43:10.143Z,12.90
2023-05-11T21:45:37.559Z,12.80
2023-05-11T21:48:04.456Z,12.70
2023-05-11T21:50:31.074Z,12.60
2023-05-11T21:52:57.986Z,12.50
2023-05-11T21:55:24.634Z,12.40
2023-05-11T21:57:51.565Z,12.30
2023-05-11T22:00:19.127Z,12.20
2023-05-11T22:02:46.039Z,12.20
2023-05-11T22:05:12.686Z,12.10
2023-05-11T22:07:39.409Z,12.00
2023-05-11T22:10:06.530Z,11.90
2023-05-11T22:12:33.224Z,11.80
2023-05-11T22:14:59.964Z,11.80
2023-05-11T22:17:26.689Z,11.70
2023-05-11T22:19:53.310Z,11.70
2023-05-11T22:22:19.862Z,11.60
2023-05-11T22:24:53.952Z,11.60
2023-05-11T22:27:23.319Z,11.60
2023-05-11T22:29:50.028Z,11.50
2023-05-11T22:32:16.579Z,11.40
2023-05-11T22:34:43.195Z,11.40
2023-05-11T22:37:09.873Z,11.30
2023-05-11T22:39:36.462Z,11.30
2023-05-11T22:42:03.521Z,11.20
2023-05-11T22:44:30.187Z,11.20
2023-05-11T22:46:59.240Z,11.10
2023-05-11T22:49:26.734Z,11.10
2023-05-11T22:51:56.802Z,11.10
2023-05-11T22:54:23.465Z,11.00
2023-05-11T22:56:50.013Z,11.00
2023-05-11T22:59:16.627Z,11.00
2023-05-11T23:01:43.682Z,11.00
2023-05-11T23:04:10.394Z,11.00
2023-05-11T23:06:37.133Z,10.80
2023-05-11T23:09:04.901Z,10.80
2023-05-11T23:11:31.808Z,10.80
2023-05-11T23:13:58.380Z,10.70
2023-05-11T23:16:25.029Z,10.70
2023-05-11T23:18:51.690Z,10.70
2023-05-11T23:21:18.400Z,10.70
2023-05-11T23:23:45.039Z,10.70
2023-05-11T23:26:11.880Z,10.60
2023-05-11T23:28:38.512Z,10.60
2023-05-11T23:31:05.091Z,10.60
2023-05-11T23:33:31.655Z,10.50
2023-05-11T23:35:58.153Z,10.50
2023-05-11T23:38:25.823Z,10.50
2023-05-11T23:40:52.471Z,10.40
2023-05-11T23:43:19.389Z,10.40
2023-05-11T23:45:46.202Z,10.30
2023-05-11T23:48:12.787Z,10.30
2023-05-11T23:50:55.062Z,10.20
2023-05-11T23:53:21.640Z,10.20
2023-05-11T23:55:48.310Z,10.20
2023-05-11T23:58:15.141Z,10.10
